| time (UTC) | temp F | wind direction | speed knots | gust knots | rain 1hr in | rain 24hr in | rain mn in | humidity % | barometer mb |
| 20260509000749 | 68 | 0 | 0.0 | 0.9 | 0.00 | 0.01 | 0.01 | 44 | 1011.0 |
| 20260508235249 | 68 | 0 | 0.0 | 2.6 | 0.00 | 0.01 | 0.01 | 44 | 1010.8 |
| 20260508233749 | 68 | 273 | 1.7 | 2.6 | 0.00 | 0.01 | 0.01 | 43 | 1010.8 |
| 20260508232249 | 68 | 264 | 3.5 | 7.8 | 0.00 | 0.01 | 0.01 | 41 | 1010.8 |
| 20260508230749 | 69 | 281 | 5.2 | 8.7 | 0.00 | 0.01 | 0.01 | 39 | 1011.0 |
| 20260508225249 | 69 | 284 | 2.6 | 6.1 | 0.00 | 0.01 | 0.01 | 41 | 1011.1 |
| 20260508223749 | 69 | 279 | 3.5 | 5.2 | 0.00 | 0.01 | 0.01 | 42 | 1011.2 |
| 20260508222249 | 70 | 281 | 3.5 | 7.8 | 0.00 | 0.01 | 0.01 | 41 | 1011.3 |
| 20260508220749 | 69 | 276 | 1.7 | 5.2 | 0.00 | 0.01 | 0.01 | 40 | 1011.2 |
| 20260508215249 | 69 | 267 | 2.6 | 8.7 | 0.00 | 0.01 | 0.01 | 40 | 1011.4 |
| 20260508213749 | 70 | 202 | 1.7 | 4.3 | 0.00 | 0.01 | 0.01 | 40 | 1011.3 |
| 20260508212249 | 69 | 263 | 0.9 | 6.1 | 0.00 | 0.01 | 0.01 | 37 | 1011.1 |
| 20260508210749 | 69 | 281 | 3.5 | 7.0 | 0.00 | 0.01 | 0.01 | 38 | 1011.2 |
| 20260508205249 | 70 | 279 | 5.2 | 5.2 | 0.00 | 0.01 | 0.01 | 36 | 1011.3 |
| 20260508203749 | 69 | 330 | 7.0 | 7.0 | 0.00 | 0.01 | 0.01 | 35 | 1011.4 |
| 20260508202249 | 69 | 306 | 3.5 | 7.8 | 0.00 | 0.01 | 0.01 | 37 | 1011.6 |
| 20260508200749 | 69 | 228 | 1.7 | 4.3 | 0.00 | 0.01 | 0.01 | 35 | 1012.0 |
| 20260508195249 | 68 | 259 | 2.6 | 5.2 | 0.00 | 0.01 | 0.01 | 36 | 1012.6 |
| 20260508193749 | 69 | 198 | 6.1 | 9.6 | 0.00 | 0.01 | 0.01 | 36 | 1013.1 |
| 20260508192249 | 70 | 213 | 3.5 | 6.1 | 0.00 | 0.01 | 0.01 | 34 | 1013.2 |
| 20260508190749 | 69 | 360 | 0.9 | 3.5 | 0.00 | 0.01 | 0.01 | 30 | 1013.1 |
| 20260508185249 | 68 | 228 | 0.9 | 1.7 | 0.00 | 0.01 | 0.01 | 29 | 1013.5 |
| 20260508183749 | 67 | 178 | 2.6 | 2.6 | 0.00 | 0.01 | 0.01 | 35 | 1013.7 |
| 20260508182249 | 67 | 149 | 4.3 | 6.1 | 0.00 | 0.01 | 0.01 | 32 | 1013.9 |
| 20260508180749 | 67 | 124 | 1.7 | 4.3 | 0.00 | 0.01 | 0.01 | 34 | 1014.0 |
| 20260508175249 | 66 | 307 | 2.6 | 3.5 | 0.00 | 0.01 | 0.01 | 38 | 1014.2 |
| 20260508173749 | 66 | 114 | 0.9 | 3.5 | 0.00 | 0.01 | 0.01 | 39 | 1014.4 |
| 20260508172249 | 65 | 55 | 3.5 | 4.3 | 0.00 | 0.01 | 0.01 | 38 | 1014.8 |
| 20260508170749 | 64 | 320 | 2.6 | 4.3 | 0.00 | 0.01 | 0.01 | 48 | 1015.2 |
| 20260508165249 | 63 | 240 | 3.5 | 3.5 | 0.00 | 0.01 | 0.01 | 45 | 1015.5 |
| 20260508163749 | 64 | 95 | 5.2 | 7.8 | 0.00 | 0.01 | 0.01 | 50 | 1015.8 |
| 20260508162249 | 63 | 65 | 3.5 | 5.2 | 0.00 | 0.01 | 0.01 | 52 | 1016.0 |
| 20260508160749 | 61 | 194 | 0.9 | 2.6 | 0.00 | 0.01 | 0.01 | 49 | 1016.2 |
| 20260508155249 | 60 | 187 | 1.7 | 3.5 | 0.00 | 0.01 | 0.01 | 48 | 1016.6 |
| 20260508153749 | 59 | 294 | 3.5 | 4.3 | 0.00 | 0.01 | 0.01 | 54 | 1016.7 |
| 20260508152249 | 58 | 109 | 1.7 | 2.6 | 0.00 | 0.02 | 0.01 | 57 | 1017.0 |
| 20260508150749 | 56 | 168 | 1.7 | 3.5 | 0.00 | 0.03 | 0.01 | 57 | 1017.0 |
| 20260508145249 | 52 | 186 | 0.9 | 1.7 | 0.00 | 0.04 | 0.01 | 6 | 1017.1 |
| 20260508143749 | 51 | 203 | 1.7 | 1.7 | 0.00 | 0.04 | 0.01 | 1 | 1017.2 |
| 20260508142249 | 50 | 219 | 0.9 | 2.6 | 0.00 | 0.04 | 0.01 | 1 | 1017.3 |
| 20260508140749 | 49 | 126 | 1.7 | 1.7 | 0.00 | 0.05 | 0.01 | 1 | 1017.3 |
| 20260508135249 | 47 | 126 | 1.7 | 2.6 | 0.00 | 0.05 | 0.01 | 2 | 1017.4 |
| 20260508133749 | 46 | 0 | 0.0 | 1.7 | 0.00 | 0.05 | 0.01 | 2 | 1017.4 |
| 20260508132249 | 45 | 106 | 3.5 | 3.5 | 0.00 | 0.05 | 0.01 | 4 | 1017.3 |
| 20260508130749 | 44 | 47 | 1.7 | 2.6 | 0.00 | 0.05 | 0.01 | 5 | 1017.1 |
| 20260508125249 | 43 | 80 | 0.9 | 1.7 | 0.00 | 0.05 | 0.01 | 6 | 1017.2 |
| 20260508123749 | 42 | 80 | 1.7 | 1.7 | 0.00 | 0.05 | 0.01 | 7 | 1017.2 |
| 20260508122249 | 42 | 5 | 1.7 | 2.6 | 0.00 | 0.05 | 0.01 | 7 | 1017.1 |
| 20260508120749 | 40 | 113 | 1.7 | 3.5 | 0.00 | 0.05 | 0.01 | 8 | 1016.8 |
| 20260508115249 | 39 | 0 | 0.0 | 1.7 | 0.01 | 0.05 | 0.01 | 9 | 1016.7 |
| 20260508113749 | 38 | 199 | 0.9 | 0.9 | 0.01 | 0.05 | 0.01 | 11 | 1016.4 |
| 20260508112249 | 38 | 0 | 0.0 | 0.0 | 0.01 | 0.05 | 0.01 | 12 | 1016.2 |
| 20260508110749 | 37 | 0 | 0.0 | 0.0 | 0.01 | 0.05 | 0.01 | 14 | 1016.0 |
| 20260508105249 | 37 | 0 | 0.0 | 0.0 | 0.00 | 0.04 | 0.00 | 16 | 1015.8 |
| 20260508103749 | 38 | 0 | 0.0 | 0.0 | 0.00 | 0.04 | 0.00 | 15 | 1015.6 |
| 20260508102324 | 38 | 0 | 0.0 | 0.0 | 0.00 | 0.04 | 0.00 | 13 | 1015.5 |
| 20260508102249 | 38 | 0 | 0.0 | 0.0 | 0.00 | 0.04 | 0.00 | 13 | 1015.5 |
| 20260508100749 | 38 | 0 | 0.0 | 0.0 | 0.00 | 0.04 | 0.00 | 13 | 1015.2 |
| 20260508095249 | 38 | 0 | 0.0 | 0.0 | 0.00 | 0.05 | 0.00 | 13 | 1015.1 |
| 20260508093749 | 38 | 0 | 0.0 | 0.0 | 0.00 | 0.05 | 0.00 | 15 | 1015.0 |
| 20260508092249 | 38 | 0 | 0.0 | 0.0 | 0.00 | 0.05 | 0.00 | 16 | 1014.9 |
| 20260508090749 | 39 | 0 | 0.0 | 0.0 | 0.00 | 0.05 | 0.00 | 16 | 1014.9 |
| 20260508085249 | 39 | 0 | 0.0 | 0.0 | 0.00 | 0.05 | 0.00 | 15 | 1014.8 |
| 20260508083749 | 40 | 0 | 0.0 | 0.0 | 0.00 | 0.06 | 0.00 | 12 | 1014.6 |
| 20260508082249 | 40 | 0 | 0.0 | 0.0 | 0.00 | 0.06 | 0.00 | 14 | 1014.7 |
| 20260508080749 | 40 | 0 | 0.0 | 0.0 | 0.00 | 0.07 | 0.00 | 16 | 1014.7 |
| 20260508075249 | 41 | 0 | 0.0 | 0.0 | 0.00 | 0.07 | 0.00 | 13 | 1014.7 |
| 20260508073749 | 41 | 226 | 0.9 | 0.9 | 0.00 | 0.07 | 0.00 | 13 | 1014.6 |
| 20260508072320 | 42 | 0 | 0.0 | 0.0 | 0.00 | 0.07 | 0.00 | 14 | 1014.6 |
| 20260508072249 | 42 | 0 | 0.0 | 0.0 | 0.00 | 0.07 | 0.00 | 14 | 1014.6 |
| 20260508070749 | 43 | 0 | 0.0 | 0.0 | 0.00 | 0.07 | 0.00 | 12 | 1014.5 |
| 20260508065249 | 43 | 0 | 0.0 | 0.0 | 0.00 | 0.07 | 0.00 | 10 | 1014.5 |
| 20260508063749 | 44 | 0 | 0.0 | 0.0 | 0.00 | 0.07 | 0.00 | 10 | 1014.6 |
| 20260508062249 | 43 | 205 | 0.9 | 1.7 | 0.00 | 0.07 | 0.00 | 8 | 1014.6 |
| 20260508060749 | 43 | 0 | 0.0 | 0.0 | 0.00 | 0.07 | 0.00 | 11 | 1014.7 |
| 20260508055249 | 43 | 0 | 0.0 | 0.9 | 0.00 | 0.08 | 0.00 | 10 | 1014.7 |
| 20260508053749 | 42 | 150 | 0.9 | 2.6 | 0.00 | 0.08 | 0.00 | 14 | 1014.7 |
| 20260508052249 | 42 | 0 | 0.0 | 0.9 | 0.00 | 0.08 | 0.00 | 19 | 1014.6 |
| 20260508050749 | 43 | 0 | 0.0 | 1.7 | 0.00 | 0.08 | 0.00 | 16 | 1014.5 |
| 20260508045249 | 43 | 0 | 0.0 | 0.9 | 0.00 | 0.08 | 0.00 | 18 | 1014.4 |
| 20260508043749 | 44 | 0 | 0.0 | 0.9 | 0.00 | 0.08 | 0.00 | 18 | 1014.2 |
| 20260508042249 | 44 | 0 | 0.0 | 0.0 | 0.00 | 0.08 | 0.00 | 17 | 1014.0 |
| 20260508040749 | 44 | 0 | 0.0 | 1.7 | 0.00 | 0.08 | 0.00 | 20 | 1013.9 |
| 20260508035249 | 45 | 0 | 0.0 | 0.0 | 0.00 | 0.08 | 0.08 | 19 | 1013.7 |
| 20260508033749 | 46 | 0 | 0.0 | 0.0 | 0.00 | 0.08 | 0.08 | 18 | 1013.7 |
| 20260508032249 | 46 | 151 | 1.7 | 1.7 | 0.00 | 0.08 | 0.08 | 19 | 1013.5 |
| 20260508030749 | 46 | 151 | 0.9 | 0.9 | 0.00 | 0.09 | 0.08 | 18 | 1013.8 |
| 20260508025249 | 46 | 0 | 0.0 | 0.0 | 0.00 | 0.09 | 0.08 | 24 | 1013.6 |
| 20260508023749 | 47 | 0 | 0.0 | 0.9 | 0.00 | 0.09 | 0.08 | 28 | 1013.3 |
| 20260508022249 | 48 | 0 | 0.0 | 0.9 | 0.00 | 0.09 | 0.08 | 27 | 1013.0 |
| 20260508020749 | 49 | 0 | 0.0 | 0.9 | 0.00 | 0.09 | 0.08 | 23 | 1012.9 |
| 20260508015249 | 50 | 0 | 0.0 | 0.0 | 0.00 | 0.09 | 0.08 | 32 | 1012.7 |
| 20260508013749 | 51 | 0 | 0.0 | 0.9 | 0.00 | 0.09 | 0.08 | 32 | 1012.4 |
| 20260508012249 | 52 | 0 | 0.0 | 0.9 | 0.00 | 0.10 | 0.08 | 35 | 1012.2 |
| 20260508010749 | 54 | 0 | 0.0 | 0.9 | 0.00 | 0.10 | 0.08 | 39 | 1011.9 |
| 20260508005249 | 55 | 0 | 0.0 | 0.9 | 0.00 | 0.10 | 0.08 | 39 | 1011.8 |
| 20260508003749 | 56 | 143 | 0.9 | 1.7 | 0.00 | 0.10 | 0.08 | 39 | 1011.6 |
| 20260508002249 | 57 | 143 | 2.6 | 2.6 | 0.00 | 0.10 | 0.08 | 40 | 1011.3 |